Hunter River, Canada
Current Conditions -  °F | °C
As of 6:26 PM on Friday 28 Nov 2014 (Local Time) from CYYG Reporting Station
Broken Clouds Broken Clouds  
Wind Chill: 16°   Ceiling: 4200
Heat Index: 25°   Visibility: 15mi
Dew Point: 19°   Wind: 8mph
Humidity: 80%   Direction: 290°WNW
Pressure: 29.94"   Gusts: NA
Location:  46.35°N, 63.35°W
Report Text: CYYG 282226Z 29007KT 15SM BKN042 M04/M07 A2994 RMK SC7 SLP141
Loading
Personal Weather Stations






























Interactive Weather Map New forecast layout! Learn more

10-Day Weather Forecast

Advertisements
Track Severe Weather on mobile